createdAt,value
2017-07-23T00:00:50.474Z,84.60
2017-07-23T00:03:17.230Z,84.70
2017-07-23T00:05:44.079Z,85.30
2017-07-23T00:08:10.829Z,85.10
2017-07-23T00:13:32.367Z,84.20
2017-07-23T00:15:59.101Z,85.20
2017-07-23T00:18:27.415Z,85.10
2017-07-23T00:20:54.171Z,85.60
2017-07-23T00:23:20.951Z,84.80
2017-07-23T00:25:47.760Z,85.80
2017-07-23T00:28:14.535Z,85.70
2017-07-23T00:30:41.311Z,85.50
2017-07-23T00:33:08.126Z,86.00
2017-07-23T00:35:34.886Z,84.10
2017-07-23T00:38:01.692Z,85.40
2017-07-23T00:40:28.488Z,85.50
2017-07-23T00:42:55.243Z,85.40
2017-07-23T00:45:22.017Z,85.30
2017-07-23T00:47:48.859Z,85.20
2017-07-23T00:50:15.643Z,85.60
2017-07-23T00:52:42.429Z,86.10
2017-07-23T00:55:09.303Z,85.10
2017-07-23T00:57:36.160Z,85.20
2017-07-23T01:00:03.033Z,84.80
2017-07-23T01:02:29.845Z,85.50
2017-07-23T01:04:56.608Z,86.00
2017-07-23T01:07:23.371Z,85.60
2017-07-23T01:09:50.185Z,85.40
2017-07-23T01:12:17.059Z,85.90
2017-07-23T01:14:43.840Z,86.20
2017-07-23T01:17:10.687Z,85.60
2017-07-23T01:19:37.484Z,85.20
2017-07-23T01:22:04.242Z,85.00
2017-07-23T01:24:31.017Z,85.50
2017-07-23T01:26:57.807Z,85.40
2017-07-23T01:29:24.572Z,86.00
2017-07-23T01:31:51.354Z,85.80
2017-07-23T01:34:18.191Z,86.60
2017-07-23T01:36:44.963Z,86.50
2017-07-23T01:39:11.785Z,85.60
2017-07-23T01:41:38.584Z,86.20
2017-07-23T01:44:05.371Z,85.90
2017-07-23T01:46:32.165Z,86.00
2017-07-23T01:48:59.041Z,86.20
2017-07-23T01:51:26.004Z,84.70
2017-07-23T01:53:52.772Z,86.00
2017-07-23T01:56:19.618Z,85.50
2017-07-23T01:58:46.667Z,85.30
2017-07-23T02:01:13.444Z,85.40
2017-07-23T02:03:40.207Z,85.20
2017-07-23T02:06:07.096Z,85.30
2017-07-23T02:08:33.960Z,85.20
2017-07-23T02:11:00.784Z,85.40
2017-07-23T02:13:27.751Z,85.70
2017-07-23T02:15:54.632Z,86.50
2017-07-23T02:18:21.496Z,85.70
2017-07-23T02:20:48.267Z,86.50
2017-07-23T02:23:15.096Z,85.90
2017-07-23T02:25:44.060Z,86.60
2017-07-23T02:28:10.929Z,86.30
2017-07-23T02:30:37.819Z,87.50
2017-07-23T02:33:04.812Z,86.70
2017-07-23T02:35:31.612Z,86.70
2017-07-23T02:37:58.448Z,87.00
2017-07-23T02:40:25.219Z,87.10
2017-07-23T02:42:52.016Z,86.90
2017-07-23T02:45:18.854Z,86.60
2017-07-23T02:47:45.587Z,86.90
2017-07-23T02:50:12.363Z,86.00
2017-07-23T02:52:39.204Z,86.40
2017-07-23T02:55:06.126Z,86.30
2017-07-23T02:57:32.900Z,86.30
2017-07-23T02:59:59.675Z,85.50
2017-07-23T03:02:26.515Z,86.20
2017-07-23T03:04:53.296Z,86.00
2017-07-23T03:07:20.072Z,85.90
2017-07-23T03:09:46.908Z,86.30
2017-07-23T03:12:13.691Z,86.60
2017-07-23T03:14:40.452Z,85.90
2017-07-23T03:17:07.261Z,85.80
2017-07-23T03:19:34.063Z,86.50
2017-07-23T03:22:00.850Z,86.80
2017-07-23T03:24:27.764Z,86.50
2017-07-23T03:26:54.585Z,86.80
2017-07-23T03:29:21.376Z,87.40
2017-07-23T03:31:48.201Z,87.50
2017-07-23T03:34:14.956Z,87.10
2017-07-23T03:36:41.789Z,87.70
2017-07-23T03:39:08.672Z,87.40
2017-07-23T03:41:35.495Z,87.90
2017-07-23T03:44:02.305Z,88.00
2017-07-23T03:46:29.116Z,87.80
2017-07-23T03:48:55.924Z,87.90
2017-07-23T03:51:22.703Z,88.00
2017-07-23T03:53:49.817Z,87.00
2017-07-23T03:56:16.615Z,87.60
2017-07-23T03:58:43.399Z,87.60
2017-07-23T04:01:10.228Z,87.40
2017-07-23T04:03:37.008Z,88.00
2017-07-23T04:06:03.757Z,87.80
2017-07-23T04:08:30.612Z,86.90
2017-07-23T04:10:57.438Z,87.20
2017-07-23T04:13:24.215Z,86.80
2017-07-23T04:15:51.016Z,86.70
2017-07-23T04:18:17.808Z,87.50
2017-07-23T04:20:44.569Z,87.60
2017-07-23T04:23:11.380Z,87.00
2017-07-23T04:25:42.248Z,87.60
2017-07-23T04:28:09.023Z,87.60
2017-07-23T04:30:35.858Z,87.20
2017-07-23T04:33:02.629Z,87.50
2017-07-23T04:35:29.391Z,87.10
2017-07-23T04:37:56.212Z,87.10
2017-07-23T04:40:22.969Z,87.70
2017-07-23T04:42:49.709Z,87.30
2017-07-23T04:45:16.549Z,87.90
2017-07-23T04:47:43.351Z,87.50
2017-07-23T04:50:10.161Z,87.40
2017-07-23T04:52:37.009Z,87.60
2017-07-23T04:55:03.961Z,87.20
2017-07-23T04:57:30.728Z,87.30
2017-07-23T04:59:57.501Z,87.90
2017-07-23T05:02:24.369Z,87.60
2017-07-23T05:04:51.163Z,86.80
2017-07-23T05:07:17.952Z,87.20
2017-07-23T05:09:44.731Z,87.40
2017-07-23T05:12:11.526Z,87.20
2017-07-23T05:14:39.960Z,86.90
2017-07-23T05:17:06.799Z,86.70
2017-07-23T05:19:33.565Z,87.10
2017-07-23T05:22:00.565Z,86.60
2017-07-23T05:24:27.338Z,86.80
2017-07-23T05:26:54.096Z,86.30
2017-07-23T05:29:20.908Z,86.00
2017-07-23T05:31:47.761Z,86.00
2017-07-23T05:34:14.543Z,86.50
2017-07-23T05:36:41.316Z,86.20
2017-07-23T05:39:08.116Z,85.20
2017-07-23T05:41:34.924Z,84.80
2017-07-23T05:44:02.002Z,85.80
2017-07-23T05:46:29.171Z,86.30
2017-07-23T05:48:55.983Z,86.60
2017-07-23T05:51:22.890Z,87.20
2017-07-23T05:53:49.804Z,86.70
2017-07-23T05:56:16.625Z,86.00
2017-07-23T05:58:43.417Z,86.30
2017-07-23T06:01:10.293Z,86.00
2017-07-23T06:03:37.112Z,85.00
2017-07-23T06:06:04.021Z,84.10
2017-07-23T06:08:31.714Z,85.70
2017-07-23T06:14:04.069Z,85.80
2017-07-23T06:19:33.919Z,85.90
2017-07-23T06:27:57.273Z,84.60
2017-07-23T06:30:39.231Z,85.00
2017-07-23T06:33:08.965Z,84.90
2017-07-23T06:35:39.291Z,84.70
2017-07-23T06:38:06.256Z,85.20
2017-07-23T06:40:33.424Z,85.60
2017-07-23T06:43:01.062Z,85.60
2017-07-23T06:45:27.958Z,84.50
2017-07-23T06:47:54.795Z,83.80
2017-07-23T06:50:21.907Z,85.40
2017-07-23T06:52:49.747Z,84.90
2017-07-23T06:55:17.785Z,84.70
2017-07-23T06:57:44.598Z,85.20
2017-07-23T07:00:11.375Z,85.40
2017-07-23T07:02:38.245Z,85.50
2017-07-23T07:05:05.042Z,85.00
2017-07-23T07:07:31.857Z,84.70
2017-07-23T07:09:58.825Z,84.80
2017-07-23T07:12:28.320Z,84.80
2017-07-23T07:14:55.243Z,84.40
2017-07-23T07:17:22.088Z,84.80
2017-07-23T07:19:48.950Z,85.30
2017-07-23T07:22:15.880Z,85.00
2017-07-23T07:24:48.256Z,85.10
2017-07-23T07:27:15.489Z,85.50
2017-07-23T07:29:42.658Z,84.20
2017-07-23T07:32:09.484Z,83.30
2017-07-23T07:34:41.627Z,80.90
2017-07-23T07:37:08.631Z,81.00
2017-07-23T07:39:35.908Z,78.50
2017-07-23T07:42:02.780Z,78.90
2017-07-23T07:44:29.660Z,78.60
2017-07-23T07:46:56.647Z,77.40
2017-07-23T07:49:23.551Z,78.70
2017-07-23T07:51:50.489Z,78.70
2017-07-23T07:54:17.529Z,78.10
2017-07-23T08:05:02.685Z,80.50
2017-07-23T08:07:31.528Z,77.20
2017-07-23T08:09:58.889Z,78.10
2017-07-23T08:12:26.794Z,79.30
2017-07-23T08:14:53.734Z,78.10
2017-07-23T08:17:21.588Z,78.70
2017-07-23T08:19:52.142Z,78.30
2017-07-23T08:28:04.742Z,78.70
2017-07-23T08:30:31.606Z,76.30
2017-07-23T08:32:58.567Z,76.80
2017-07-23T08:35:25.469Z,78.00
2017-07-23T08:37:52.324Z,77.20
2017-07-23T08:40:19.320Z,77.60
2017-07-23T08:42:46.188Z,78.10
2017-07-23T08:45:13.053Z,79.10
2017-07-23T08:47:39.989Z,79.20
2017-07-23T08:50:06.864Z,79.80
2017-07-23T08:52:33.769Z,78.00
2017-07-23T08:55:00.915Z,78.20
2017-07-23T08:57:27.824Z,78.10
2017-07-23T08:59:54.903Z,77.80
2017-07-23T09:02:21.773Z,77.60
2017-07-23T09:04:49.639Z,77.40
2017-07-23T09:07:16.673Z,78.20
2017-07-23T09:09:43.535Z,77.10
2017-07-23T09:12:10.374Z,78.00
2017-07-23T09:14:37.264Z,77.80
2017-07-23T09:17:04.174Z,77.10
2017-07-23T09:19:31.041Z,77.60
2017-07-23T09:21:57.844Z,77.30
2017-07-23T09:24:24.701Z,75.70
2017-07-23T09:26:51.576Z,74.50
2017-07-23T09:29:18.420Z,74.10
2017-07-23T09:31:45.338Z,75.50
2017-07-23T09:34:12.217Z,74.50
2017-07-23T09:36:39.180Z,75.70
2017-07-23T09:39:05.988Z,75.80
2017-07-23T09:41:32.830Z,74.90
2017-07-23T09:43:59.694Z,75.80
2017-07-23T09:46:28.199Z,75.90
2017-07-23T09:48:55.004Z,76.40
2017-07-23T09:51:21.797Z,74.90
2017-07-23T09:53:48.649Z,76.80
2017-07-23T09:56:15.466Z,77.80
2017-07-23T09:58:42.257Z,77.60
2017-07-23T10:01:09.080Z,77.20
2017-07-23T10:03:35.897Z,77.80
2017-07-23T10:06:02.992Z,77.80
2017-07-23T10:08:29.844Z,77.70
2017-07-23T10:10:56.697Z,77.10
2017-07-23T10:13:23.629Z,75.90
2017-07-23T10:15:50.493Z,76.80
2017-07-23T10:18:17.366Z,78.20
2017-07-23T10:20:44.271Z,78.10
2017-07-23T10:23:11.105Z,77.40
2017-07-23T10:25:37.988Z,77.60
2017-07-23T10:28:04.847Z,78.60
2017-07-23T10:30:31.757Z,77.90
2017-07-23T10:32:58.569Z,77.80
2017-07-23T10:35:25.366Z,78.80
2017-07-23T10:37:52.212Z,78.70
2017-07-23T10:40:19.021Z,77.40
2017-07-23T10:42:45.809Z,77.20
2017-07-23T10:45:12.736Z,77.80
2017-07-23T10:47:39.646Z,78.10
2017-07-23T10:50:07.085Z,77.80
2017-07-23T10:52:34.239Z,78.10
2017-07-23T10:55:01.136Z,78.80
2017-07-23T10:57:27.920Z,78.00
2017-07-23T10:59:54.757Z,76.80
2017-07-23T11:02:21.618Z,77.90
2017-07-23T11:04:48.500Z,77.60
2017-07-23T11:07:15.386Z,77.50
2017-07-23T11:09:42.177Z,75.50
2017-07-23T11:12:08.981Z,74.30
2017-07-23T11:14:35.837Z,73.40
2017-07-23T11:17:02.713Z,74.50
2017-07-23T11:19:29.578Z,72.50
2017-07-23T11:21:56.457Z,73.60
2017-07-23T11:24:23.357Z,71.90
2017-07-23T11:26:50.234Z,72.70
2017-07-23T11:29:17.137Z,72.30
2017-07-23T11:31:45.075Z,69.70
2017-07-23T11:34:12.841Z,70.60
2017-07-23T11:36:39.658Z,69.00
2017-07-23T11:39:06.544Z,71.20
2017-07-23T11:41:33.347Z,72.20
2017-07-23T11:44:00.182Z,70.50
2017-07-23T11:46:27.124Z,68.60
2017-07-23T11:48:53.998Z,69.50
2017-07-23T11:51:20.927Z,71.50
2017-07-23T11:53:47.803Z,71.20
2017-07-23T11:56:14.914Z,71.70
2017-07-23T11:58:41.740Z,69.70
2017-07-23T12:01:08.533Z,71.20
2017-07-23T12:03:35.478Z,72.60
2017-07-23T12:06:02.344Z,70.60
2017-07-23T12:08:29.275Z,71.80
2017-07-23T12:10:56.179Z,72.20
2017-07-23T12:13:23.038Z,73.80
2017-07-23T12:15:49.877Z,74.50
2017-07-23T12:18:16.674Z,73.20
2017-07-23T12:20:43.540Z,70.20
2017-07-23T12:23:10.491Z,72.70
2017-07-23T12:25:37.353Z,73.40
2017-07-23T12:28:04.210Z,71.80
2017-07-23T12:30:31.058Z,72.50
2017-07-23T12:32:57.918Z,70.10
2017-07-23T12:35:24.786Z,72.00
2017-07-23T12:37:51.718Z,73.10
2017-07-23T12:40:18.593Z,72.90
2017-07-23T12:42:45.470Z,71.20
2017-07-23T12:45:12.411Z,72.70
2017-07-23T12:47:39.250Z,72.20
2017-07-23T12:50:06.102Z,70.70
2017-07-23T12:52:32.963Z,73.00
2017-07-23T12:54:59.785Z,74.50
2017-07-23T12:57:26.750Z,73.90
2017-07-23T12:59:53.600Z,70.50
2017-07-23T13:02:20.452Z,69.00
2017-07-23T13:04:47.331Z,70.60
2017-07-23T13:07:14.259Z,70.40
2017-07-23T13:09:41.163Z,68.60
2017-07-23T13:12:08.208Z,68.20
2017-07-23T13:14:35.092Z,70.10
2017-07-23T13:17:01.954Z,70.50
2017-07-23T13:19:28.901Z,71.30
2017-07-23T13:21:55.727Z,67.60
2017-07-23T13:24:22.509Z,66.30
2017-07-23T13:26:49.379Z,68.10
2017-07-23T13:29:16.248Z,68.20
2017-07-23T13:31:43.068Z,66.30
2017-07-23T13:34:09.989Z,69.80
2017-07-23T13:36:38.114Z,70.40
2017-07-23T13:39:04.958Z,71.70
2017-07-23T13:41:31.820Z,68.10
2017-07-23T13:43:58.732Z,68.10
2017-07-23T13:46:25.633Z,68.70
2017-07-23T13:48:52.494Z,68.00
2017-07-23T13:51:19.443Z,67.60
2017-07-23T13:53:46.396Z,68.70
2017-07-23T13:56:13.268Z,69.10
2017-07-23T13:58:40.247Z,68.70
2017-07-23T14:01:07.497Z,67.00
2017-07-23T14:03:34.371Z,67.00
2017-07-23T14:06:01.180Z,65.80
2017-07-23T14:08:28.044Z,66.10
2017-07-23T14:10:54.844Z,66.20
2017-07-23T14:13:21.722Z,67.90
2017-07-23T14:15:49.404Z,67.30
2017-07-23T14:18:16.340Z,67.10
2017-07-23T14:20:43.205Z,66.60
2017-07-23T14:23:10.083Z,66.50
2017-07-23T14:25:36.981Z,67.30
2017-07-23T14:28:03.853Z,66.60
2017-07-23T14:30:31.315Z,68.00
2017-07-23T14:32:58.179Z,66.50
2017-07-23T14:35:27.121Z,66.50
2017-07-23T14:37:54.462Z,69.30
2017-07-23T14:40:21.357Z,68.80
2017-07-23T14:42:48.284Z,68.10
2017-07-23T14:45:15.089Z,70.50
2017-07-23T14:47:41.883Z,69.60
2017-07-23T14:50:09.028Z,70.90
2017-07-23T14:52:35.825Z,71.00
2017-07-23T14:55:02.653Z,70.00
2017-07-23T14:57:30.141Z,71.10
2017-07-23T14:59:57.112Z,67.90
2017-07-23T15:02:23.987Z,67.10
2017-07-23T15:04:51.167Z,68.50
2017-07-23T15:07:18.114Z,69.00
2017-07-23T15:09:44.986Z,69.20
2017-07-23T15:12:11.921Z,69.70
2017-07-23T15:14:38.748Z,69.90
2017-07-23T15:17:05.526Z,66.60
2017-07-23T15:19:32.425Z,68.60
2017-07-23T15:21:59.819Z,70.30
2017-07-23T15:24:26.683Z,69.00
2017-07-23T15:26:53.549Z,67.80
2017-07-23T15:29:20.383Z,69.60
2017-07-23T15:31:47.168Z,67.70
2017-07-23T15:34:14.067Z,67.30
2017-07-23T15:36:40.844Z,66.60
2017-07-23T15:39:07.674Z,68.00
2017-07-23T15:41:34.571Z,70.00
2017-07-23T15:44:01.405Z,71.10
2017-07-23T15:46:28.312Z,70.60
2017-07-23T15:48:55.211Z,66.60
2017-07-23T15:51:22.082Z,66.50
2017-07-23T15:53:48.870Z,67.10
2017-07-23T15:56:16.084Z,70.20
2017-07-23T15:58:42.907Z,72.00
2017-07-23T16:01:09.704Z,70.50
2017-07-23T16:03:36.487Z,69.50
2017-07-23T16:06:03.655Z,69.60
2017-07-23T16:08:30.463Z,67.70
2017-07-23T16:10:57.336Z,71.90
2017-07-23T16:13:24.188Z,73.40
2017-07-23T16:15:51.027Z,73.20
2017-07-23T16:18:17.990Z,72.60
2017-07-23T16:20:44.819Z,71.80
2017-07-23T16:23:11.732Z,69.00
2017-07-23T16:25:38.654Z,71.70
2017-07-23T16:28:05.496Z,74.10
2017-07-23T16:30:32.342Z,73.30
2017-07-23T16:32:59.255Z,73.80
2017-07-23T16:35:26.166Z,73.10
2017-07-23T16:37:53.073Z,73.40
2017-07-23T16:40:19.942Z,72.30
2017-07-23T16:42:46.901Z,74.00
2017-07-23T16:45:13.871Z,74.90
2017-07-23T16:47:40.705Z,75.40
2017-07-23T16:50:07.596Z,75.10
2017-07-23T16:52:34.575Z,75.10
2017-07-23T16:55:01.452Z,75.80
2017-07-23T16:57:28.505Z,75.20
2017-07-23T16:59:55.398Z,75.30
2017-07-23T17:02:22.381Z,76.90
2017-07-23T17:04:49.240Z,75.80
2017-07-23T17:07:16.121Z,76.40
2017-07-23T17:09:43.633Z,76.70
2017-07-23T17:12:10.632Z,75.40
2017-07-23T17:14:39.778Z,74.20
2017-07-23T17:17:06.693Z,74.80
2017-07-23T17:19:33.884Z,72.50
2017-07-23T17:22:00.741Z,74.00
2017-07-23T17:24:30.661Z,71.30
2017-07-23T17:26:57.519Z,71.90
2017-07-23T17:29:24.380Z,71.20
2017-07-23T17:31:51.288Z,72.80
2017-07-23T17:34:18.133Z,72.50
2017-07-23T17:36:45.042Z,71.00
2017-07-23T17:39:11.879Z,70.60
2017-07-23T17:41:38.814Z,70.40
2017-07-23T17:44:05.904Z,71.90
2017-07-23T17:46:32.849Z,72.30
2017-07-23T17:48:59.876Z,70.90
2017-07-23T17:51:26.805Z,71.00
2017-07-23T17:53:54.521Z,70.70
2017-07-23T17:56:21.413Z,71.30
2017-07-23T17:58:48.371Z,73.40
2017-07-23T18:01:15.239Z,73.60
2017-07-23T18:03:42.092Z,72.40
2017-07-23T18:06:09.079Z,72.90
2017-07-23T18:08:36.049Z,71.80
2017-07-23T18:11:02.924Z,74.70
2017-07-23T18:13:29.803Z,75.30
2017-07-23T18:15:56.751Z,75.10
2017-07-23T18:18:23.628Z,75.70
2017-07-23T18:20:50.600Z,77.10
2017-07-23T18:23:17.474Z,78.20
2017-07-23T18:25:44.265Z,78.30
2017-07-23T18:28:11.323Z,76.60
2017-07-23T18:30:38.484Z,76.90
2017-07-23T18:33:05.338Z,76.80
2017-07-23T18:35:32.117Z,75.80
2017-07-23T18:37:58.881Z,75.70
2017-07-23T18:40:25.699Z,75.20
2017-07-23T18:42:52.469Z,76.20
2017-07-23T18:45:19.315Z,75.20
2017-07-23T18:47:46.095Z,75.40
2017-07-23T18:52:45.630Z,75.90
2017-07-23T18:55:12.384Z,75.90
2017-07-23T18:57:39.505Z,76.60
2017-07-23T19:00:06.489Z,77.00
2017-07-23T19:02:33.356Z,77.60
2017-07-23T19:05:00.398Z,78.30
2017-07-23T19:07:30.142Z,78.60
2017-07-23T19:09:56.994Z,78.30
2017-07-23T19:12:23.947Z,78.30
2017-07-23T19:14:50.825Z,78.30
2017-07-23T19:17:17.684Z,78.20
2017-07-23T19:19:44.515Z,78.20
2017-07-23T19:22:11.305Z,78.20
2017-07-23T19:24:38.135Z,78.20
2017-07-23T19:27:04.976Z,78.60
2017-07-23T19:29:31.811Z,78.30
2017-07-23T19:31:58.696Z,78.20
2017-07-23T19:34:25.619Z,78.30
2017-07-23T19:36:52.492Z,79.10
2017-07-23T19:39:19.654Z,80.30
2017-07-23T19:41:47.078Z,79.70
2017-07-23T19:44:15.785Z,80.00
2017-07-23T19:46:43.529Z,80.00
2017-07-23T19:49:10.840Z,80.20
2017-07-23T19:51:38.190Z,80.70
2017-07-23T19:54:05.569Z,80.40
2017-07-23T19:56:34.893Z,79.20
2017-07-23T19:59:02.940Z,80.10
2017-07-23T20:01:33.409Z,79.60
2017-07-23T20:04:01.622Z,79.30
2017-07-23T20:06:28.510Z,79.30
2017-07-23T20:08:55.302Z,79.50
2017-07-23T20:11:22.145Z,80.40
2017-07-23T20:13:49.020Z,79.70
2017-07-23T20:16:17.094Z,78.70
2017-07-23T20:18:44.469Z,79.40
2017-07-23T20:21:11.311Z,79.60
2017-07-23T20:23:38.097Z,79.70
2017-07-23T20:26:04.938Z,80.50
2017-07-23T20:28:31.714Z,81.00
2017-07-23T20:30:58.510Z,80.60
2017-07-23T20:33:25.350Z,80.30
2017-07-23T20:35:52.202Z,80.50
2017-07-23T20:38:18.991Z,80.70
2017-07-23T20:40:45.904Z,81.40
2017-07-23T20:43:15.224Z,82.00
2017-07-23T20:45:42.020Z,82.20
2017-07-23T20:48:09.899Z,81.90
2017-07-23T20:50:36.781Z,81.10
2017-07-23T20:53:03.649Z,79.90
2017-07-23T20:55:30.639Z,80.40
2017-07-23T20:57:57.442Z,77.90
2017-07-23T21:00:24.249Z,79.70
2017-07-23T21:02:51.162Z,79.40
2017-07-23T21:05:17.975Z,79.60
2017-07-23T21:07:44.768Z,80.40
2017-07-23T21:10:11.620Z,80.80
2017-07-23T21:12:38.424Z,79.60
2017-07-23T21:15:05.212Z,80.30
2017-07-23T21:17:32.507Z,80.40
2017-07-23T21:19:59.787Z,81.10
2017-07-23T21:22:26.718Z,81.00
2017-07-23T21:24:53.816Z,81.00
2017-07-23T21:27:21.161Z,80.40
2017-07-23T21:29:49.379Z,80.10
2017-07-23T21:32:16.186Z,80.00
2017-07-23T21:34:43.202Z,79.70
2017-07-23T21:37:10.238Z,79.40
2017-07-23T21:39:37.584Z,79.20
2017-07-23T21:42:05.443Z,79.30
2017-07-23T21:44:32.347Z,78.70
2017-07-23T21:47:00.148Z,78.50
2017-07-23T21:49:27.095Z,79.60
2017-07-23T21:51:55.699Z,80.60
2017-07-23T21:54:22.673Z,80.30
2017-07-23T21:56:50.055Z,80.10
2017-07-23T21:59:17.842Z,80.10
2017-07-23T22:01:44.842Z,78.80
2017-07-23T22:04:12.018Z,79.40
2017-07-23T22:06:39.311Z,80.60
2017-07-23T22:09:06.769Z,80.70
2017-07-23T22:11:33.575Z,81.20
2017-07-23T22:14:00.439Z,81.90
2017-07-23T22:16:27.275Z,82.30
2017-07-23T22:18:54.561Z,81.70
2017-07-23T22:21:21.361Z,80.60
2017-07-23T22:23:48.267Z,80.80
2017-07-23T22:26:15.128Z,82.10
2017-07-23T22:28:42.554Z,81.40
2017-07-23T22:31:09.486Z,80.80
2017-07-23T22:33:37.761Z,79.40
2017-07-23T22:36:04.645Z,79.30
2017-07-23T22:38:31.524Z,79.60
2017-07-23T22:40:58.388Z,80.70
2017-07-23T22:43:25.232Z,80.80
2017-07-23T22:45:52.071Z,81.70
2017-07-23T22:48:18.880Z,81.50
2017-07-23T22:50:45.776Z,80.90
2017-07-23T22:53:12.556Z,80.50
2017-07-23T22:55:39.414Z,82.20
2017-07-23T22:58:06.303Z,82.20
2017-07-23T23:00:33.157Z,79.90
2017-07-23T23:03:00.446Z,79.20
2017-07-23T23:05:30.085Z,79.30
2017-07-23T23:07:56.870Z,81.20
2017-07-23T23:10:23.726Z,81.20
2017-07-23T23:12:50.931Z,81.20
2017-07-23T23:15:17.788Z,81.60
2017-07-23T23:17:48.608Z,81.90
2017-07-23T23:20:15.561Z,82.90
2017-07-23T23:22:42.400Z,82.20
2017-07-23T23:25:09.287Z,81.20
2017-07-23T23:27:36.087Z,79.70
2017-07-23T23:30:03.108Z,79.80
2017-07-23T23:32:29.954Z,80.00
2017-07-23T23:34:56.877Z,79.60
2017-07-23T23:37:23.722Z,78.90
2017-07-23T23:39:50.659Z,79.80
2017-07-23T23:42:17.455Z,78.80
2017-07-23T23:44:44.296Z,80.10
2017-07-23T23:47:11.177Z,80.00
2017-07-23T23:49:38.024Z,78.60
2017-07-23T23:52:04.885Z,79.00
2017-07-23T23:54:31.822Z,78.70
2017-07-23T23:56:58.784Z,80.60
2017-07-23T23:59:25.644Z,80.30
